sensor_id;sensor_type;location;lat;lon;timestamp;temperature;humidity
58447;DHT22;44240;51.840;7.258;2024-02-04T00:01:32;12.60;87.80
58447;DHT22;44240;51.840;7.258;2024-02-04T00:03:59;12.60;87.90
58447;DHT22;44240;51.840;7.258;2024-02-04T00:06:26;12.50;87.90
58447;DHT22;44240;51.840;7.258;2024-02-04T00:08:53;12.60;88.10
58447;DHT22;44240;51.840;7.258;2024-02-04T00:11:20;12.60;88.10
58447;DHT22;44240;51.840;7.258;2024-02-04T00:13:47;12.50;88.10
58447;DHT22;44240;51.840;7.258;2024-02-04T00:16:14;12.60;88.20
58447;DHT22;44240;51.840;7.258;2024-02-04T00:18:40;12.50;88.10
58447;DHT22;44240;51.840;7.258;2024-02-04T00:21:07;12.50;88.30
58447;DHT22;44240;51.840;7.258;2024-02-04T00:23:34;12.50;88.30
58447;DHT22;44240;51.840;7.258;2024-02-04T00:26:01;12.50;88.30
58447;DHT22;44240;51.840;7.258;2024-02-04T00:28:28;12.50;88.40
58447;DHT22;44240;51.840;7.258;2024-02-04T00:30:55;12.50;88.40
58447;DHT22;44240;51.840;7.258;2024-02-04T00:33:24;12.50;88.50
58447;DHT22;44240;51.840;7.258;2024-02-04T00:35:51;12.40;88.40
58447;DHT22;44240;51.840;7.258;2024-02-04T00:38:18;12.50;88.70
58447;DHT22;44240;51.840;7.258;2024-02-04T00:40:45;12.40;88.60
58447;DHT22;44240;51.840;7.258;2024-02-04T00:43:12;12.50;88.60
58447;DHT22;44240;51.840;7.258;2024-02-04T00:45:39;12.40;88.50
58447;DHT22;44240;51.840;7.258;2024-02-04T00:48:05;12.40;88.60
58447;DHT22;44240;51.840;7.258;2024-02-04T00:50:32;12.50;89.70
58447;DHT22;44240;51.840;7.258;2024-02-04T00:52:59;12.40;88.60
58447;DHT22;44240;51.840;7.258;2024-02-04T00:55:26;12.40;88.60
58447;DHT22;44240;51.840;7.258;2024-02-04T00:57:53;12.40;88.60
58447;DHT22;44240;51.840;7.258;2024-02-04T01:00:22;12.50;88.70
58447;DHT22;44240;51.840;7.258;2024-02-04T01:02:49;12.50;88.70
58447;DHT22;44240;51.840;7.258;2024-02-04T01:05:16;12.50;88.70
58447;DHT22;44240;51.840;7.258;2024-02-04T01:07:42;12.50;88.70
58447;DHT22;44240;51.840;7.258;2024-02-04T01:10:10;12.50;88.70
58447;DHT22;44240;51.840;7.258;2024-02-04T01:12:37;12.40;88.70
58447;DHT22;44240;51.840;7.258;2024-02-04T01:15:04;12.40;88.80
58447;DHT22;44240;51.840;7.258;2024-02-04T01:17:32;12.40;88.90
58447;DHT22;44240;51.840;7.258;2024-02-04T01:20:00;12.40;88.90
58447;DHT22;44240;51.840;7.258;2024-02-04T01:22:27;12.40;88.90
58447;DHT22;44240;51.840;7.258;2024-02-04T01:24:54;12.40;88.90
58447;DHT22;44240;51.840;7.258;2024-02-04T01:27:21;12.40;88.90
58447;DHT22;44240;51.840;7.258;2024-02-04T01:29:48;12.40;88.90
58447;DHT22;44240;51.840;7.258;2024-02-04T01:32:15;12.40;88.90
58447;DHT22;44240;51.840;7.258;2024-02-04T01:34:42;12.40;88.90
58447;DHT22;44240;51.840;7.258;2024-02-04T01:37:09;12.40;88.90
58447;DHT22;44240;51.840;7.258;2024-02-04T01:39:36;12.40;88.90
58447;DHT22;44240;51.840;7.258;2024-02-04T01:42:03;12.40;88.90
58447;DHT22;44240;51.840;7.258;2024-02-04T01:44:31;12.40;88.90
58447;DHT22;44240;51.840;7.258;2024-02-04T01:46:58;12.40;89.00
58447;DHT22;44240;51.840;7.258;2024-02-04T01:49:25;12.40;89.00
58447;DHT22;44240;51.840;7.258;2024-02-04T01:51:53;12.30;89.00
58447;DHT22;44240;51.840;7.258;2024-02-04T01:54:22;12.40;89.10
58447;DHT22;44240;51.840;7.258;2024-02-04T01:56:52;12.30;89.50
58447;DHT22;44240;51.840;7.258;2024-02-04T01:59:20;12.40;89.10
58447;DHT22;44240;51.840;7.258;2024-02-04T02:01:49;12.30;89.10
58447;DHT22;44240;51.840;7.258;2024-02-04T02:04:16;12.30;89.20
58447;DHT22;44240;51.840;7.258;2024-02-04T02:06:42;12.30;89.20
58447;DHT22;44240;51.840;7.258;2024-02-04T02:09:10;12.30;89.40
58447;DHT22;44240;51.840;7.258;2024-02-04T02:11:42;12.30;89.30
58447;DHT22;44240;51.840;7.258;2024-02-04T02:14:14;12.30;89.40
58447;DHT22;44240;51.840;7.258;2024-02-04T02:16:44;12.30;89.40
58447;DHT22;44240;51.840;7.258;2024-02-04T02:22:38;12.30;89.40
58447;DHT22;44240;51.840;7.258;2024-02-04T02:25:07;12.30;89.40
58447;DHT22;44240;51.840;7.258;2024-02-04T02:27:35;12.30;89.30
58447;DHT22;44240;51.840;7.258;2024-02-04T02:30:12;12.30;89.20
58447;DHT22;44240;51.840;7.258;2024-02-04T02:32:39;12.30;89.20
58447;DHT22;44240;51.840;7.258;2024-02-04T02:35:06;12.30;89.20
58447;DHT22;44240;51.840;7.258;2024-02-04T02:37:45;12.30;89.30
58447;DHT22;44240;51.840;7.258;2024-02-04T02:40:36;12.30;89.40
58447;DHT22;44240;51.840;7.258;2024-02-04T02:43:04;12.30;89.40
58447;DHT22;44240;51.840;7.258;2024-02-04T02:45:32;12.30;89.50
58447;DHT22;44240;51.840;7.258;2024-02-04T02:47:59;12.30;89.60
58447;DHT22;44240;51.840;7.258;2024-02-04T02:50:27;12.20;89.60
58447;DHT22;44240;51.840;7.258;2024-02-04T02:52:55;12.20;89.70
58447;DHT22;44240;51.840;7.258;2024-02-04T02:55:22;12.20;89.80
58447;DHT22;44240;51.840;7.258;2024-02-04T02:57:48;12.20;89.80
58447;DHT22;44240;51.840;7.258;2024-02-04T03:00:16;12.20;89.80
58447;DHT22;44240;51.840;7.258;2024-02-04T03:02:42;12.20;89.80
58447;DHT22;44240;51.840;7.258;2024-02-04T03:05:09;12.20;89.80
58447;DHT22;44240;51.840;7.258;2024-02-04T03:07:36;12.20;89.80
58447;DHT22;44240;51.840;7.258;2024-02-04T03:10:03;12.20;89.90
58447;DHT22;44240;51.840;7.258;2024-02-04T03:12:30;12.20;89.80
58447;DHT22;44240;51.840;7.258;2024-02-04T03:14:57;12.20;89.80
58447;DHT22;44240;51.840;7.258;2024-02-04T03:17:24;12.20;89.80
58447;DHT22;44240;51.840;7.258;2024-02-04T03:19:52;12.20;89.70
58447;DHT22;44240;51.840;7.258;2024-02-04T03:22:21;12.20;89.60
58447;DHT22;44240;51.840;7.258;2024-02-04T03:24:49;12.20;89.60
58447;DHT22;44240;51.840;7.258;2024-02-04T03:27:17;12.20;89.60
58447;DHT22;44240;51.840;7.258;2024-02-04T03:29:46;12.20;89.40
58447;DHT22;44240;51.840;7.258;2024-02-04T03:32:13;12.20;89.40
58447;DHT22;44240;51.840;7.258;2024-02-04T03:34:43;12.20;89.30
58447;DHT22;44240;51.840;7.258;2024-02-04T03:37:11;12.20;89.20
58447;DHT22;44240;51.840;7.258;2024-02-04T03:39:38;12.20;89.20
58447;DHT22;44240;51.840;7.258;2024-02-04T03:42:05;12.20;89.10
58447;DHT22;44240;51.840;7.258;2024-02-04T03:44:32;12.20;89.10
58447;DHT22;44240;51.840;7.258;2024-02-04T03:46:59;12.10;89.00
58447;DHT22;44240;51.840;7.258;2024-02-04T03:49:26;12.10;88.90
58447;DHT22;44240;51.840;7.258;2024-02-04T03:51:53;12.10;88.90
58447;DHT22;44240;51.840;7.258;2024-02-04T03:54:20;12.10;88.70
58447;DHT22;44240;51.840;7.258;2024-02-04T03:56:48;12.10;88.70
58447;DHT22;44240;51.840;7.258;2024-02-04T03:59:15;12.10;88.70
58447;DHT22;44240;51.840;7.258;2024-02-04T04:01:49;12.10;88.50
58447;DHT22;44240;51.840;7.258;2024-02-04T04:04:17;12.10;88.50
58447;DHT22;44240;51.840;7.258;2024-02-04T04:06:45;12.10;88.50
58447;DHT22;44240;51.840;7.258;2024-02-04T04:09:12;12.10;88.50
58447;DHT22;44240;51.840;7.258;2024-02-04T04:11:39;12.10;88.50
58447;DHT22;44240;51.840;7.258;2024-02-04T04:14:06;12.10;88.50
58447;DHT22;44240;51.840;7.258;2024-02-04T04:16:33;12.10;88.50
58447;DHT22;44240;51.840;7.258;2024-02-04T04:18:59;12.10;88.50
58447;DHT22;44240;51.840;7.258;2024-02-04T04:21:26;12.10;88.50
58447;DHT22;44240;51.840;7.258;2024-02-04T04:23:53;12.10;88.50
58447;DHT22;44240;51.840;7.258;2024-02-04T04:26:20;12.10;88.50
58447;DHT22;44240;51.840;7.258;2024-02-04T04:28:47;12.10;88.60
58447;DHT22;44240;51.840;7.258;2024-02-04T04:31:13;12.10;88.60
58447;DHT22;44240;51.840;7.258;2024-02-04T04:33:40;12.00;88.60
58447;DHT22;44240;51.840;7.258;2024-02-04T04:36:07;12.00;88.60
58447;DHT22;44240;51.840;7.258;2024-02-04T04:38:35;12.00;88.60
58447;DHT22;44240;51.840;7.258;2024-02-04T04:41:01;12.00;88.60
58447;DHT22;44240;51.840;7.258;2024-02-04T04:43:28;12.00;88.60
58447;DHT22;44240;51.840;7.258;2024-02-04T04:45:55;12.00;88.60
58447;DHT22;44240;51.840;7.258;2024-02-04T04:48:22;12.00;88.60
58447;DHT22;44240;51.840;7.258;2024-02-04T04:50:49;12.00;88.70
58447;DHT22;44240;51.840;7.258;2024-02-04T04:53:15;12.10;88.70
58447;DHT22;44240;51.840;7.258;2024-02-04T04:55:42;12.10;88.60
58447;DHT22;44240;51.840;7.258;2024-02-04T04:58:09;12.00;88.50
58447;DHT22;44240;51.840;7.258;2024-02-04T05:00:36;12.10;88.50
58447;DHT22;44240;51.840;7.258;2024-02-04T05:03:03;12.10;88.60
58447;DHT22;44240;51.840;7.258;2024-02-04T05:05:30;12.00;88.40
58447;DHT22;44240;51.840;7.258;2024-02-04T05:07:57;12.10;88.50
58447;DHT22;44240;51.840;7.258;2024-02-04T05:10:24;12.00;88.30
58447;DHT22;44240;51.840;7.258;2024-02-04T05:12:51;12.00;88.40
58447;DHT22;44240;51.840;7.258;2024-02-04T05:15:17;12.10;88.30
58447;DHT22;44240;51.840;7.258;2024-02-04T05:17:44;12.10;88.20
58447;DHT22;44240;51.840;7.258;2024-02-04T05:20:11;12.00;88.20
58447;DHT22;44240;51.840;7.258;2024-02-04T05:22:38;12.00;89.30
58447;DHT22;44240;51.840;7.258;2024-02-04T05:25:05;12.00;88.20
58447;DHT22;44240;51.840;7.258;2024-02-04T05:27:33;12.00;88.20
58447;DHT22;44240;51.840;7.258;2024-02-04T05:29:59;12.00;88.20
58447;DHT22;44240;51.840;7.258;2024-02-04T05:32:28;12.00;88.10
58447;DHT22;44240;51.840;7.258;2024-02-04T05:34:55;12.00;88.00
58447;DHT22;44240;51.840;7.258;2024-02-04T05:37:22;12.00;87.90
58447;DHT22;44240;51.840;7.258;2024-02-04T05:39:49;12.00;87.70
58447;DHT22;44240;51.840;7.258;2024-02-04T05:42:16;12.00;87.20
58447;DHT22;44240;51.840;7.258;2024-02-04T05:44:43;12.00;86.70
58447;DHT22;44240;51.840;7.258;2024-02-04T05:47:10;12.00;86.40
58447;DHT22;44240;51.840;7.258;2024-02-04T05:49:37;12.00;86.20
58447;DHT22;44240;51.840;7.258;2024-02-04T05:52:04;11.90;86.30
58447;DHT22;44240;51.840;7.258;2024-02-04T05:54:31;11.90;86.10
58447;DHT22;44240;51.840;7.258;2024-02-04T05:56:58;11.90;86.00
58447;DHT22;44240;51.840;7.258;2024-02-04T05:59:25;11.90;85.90
58447;DHT22;44240;51.840;7.258;2024-02-04T06:01:51;11.90;85.80
58447;DHT22;44240;51.840;7.258;2024-02-04T06:04:18;11.80;85.60
58447;DHT22;44240;51.840;7.258;2024-02-04T06:06:46;11.80;85.80
58447;DHT22;44240;51.840;7.258;2024-02-04T06:09:13;11.80;85.90
58447;DHT22;44240;51.840;7.258;2024-02-04T06:11:40;11.80;86.00
58447;DHT22;44240;51.840;7.258;2024-02-04T06:14:07;11.80;86.00
58447;DHT22;44240;51.840;7.258;2024-02-04T06:16:34;11.80;86.00
58447;DHT22;44240;51.840;7.258;2024-02-04T06:19:01;11.80;86.10
58447;DHT22;44240;51.840;7.258;2024-02-04T06:21:27;11.70;86.20
58447;DHT22;44240;51.840;7.258;2024-02-04T06:23:54;11.70;86.40
58447;DHT22;44240;51.840;7.258;2024-02-04T06:26:21;11.70;86.50
58447;DHT22;44240;51.840;7.258;2024-02-04T06:28:48;11.70;86.70
58447;DHT22;44240;51.840;7.258;2024-02-04T06:31:15;11.70;86.80
58447;DHT22;44240;51.840;7.258;2024-02-04T06:33:42;11.70;86.80
58447;DHT22;44240;51.840;7.258;2024-02-04T06:36:10;11.70;86.90
58447;DHT22;44240;51.840;7.258;2024-02-04T06:38:37;11.70;86.90
58447;DHT22;44240;51.840;7.258;2024-02-04T06:41:04;11.70;87.00
58447;DHT22;44240;51.840;7.258;2024-02-04T06:43:31;11.80;87.00
58447;DHT22;44240;51.840;7.258;2024-02-04T06:46:02;11.80;87.00
58447;DHT22;44240;51.840;7.258;2024-02-04T06:48:29;11.80;87.20
58447;DHT22;44240;51.840;7.258;2024-02-04T06:50:56;11.70;87.30
58447;DHT22;44240;51.840;7.258;2024-02-04T06:53:23;11.80;87.40
58447;DHT22;44240;51.840;7.258;2024-02-04T06:55:50;11.80;87.50
58447;DHT22;44240;51.840;7.258;2024-02-04T06:58:16;11.80;87.50
58447;DHT22;44240;51.840;7.258;2024-02-04T07:00:43;11.80;87.50
58447;DHT22;44240;51.840;7.258;2024-02-04T07:03:10;11.80;87.70
58447;DHT22;44240;51.840;7.258;2024-02-04T07:05:37;11.80;87.70
58447;DHT22;44240;51.840;7.258;2024-02-04T07:08:04;11.80;87.70
58447;DHT22;44240;51.840;7.258;2024-02-04T07:10:31;11.70;87.90
58447;DHT22;44240;51.840;7.258;2024-02-04T07:12:58;11.70;87.90
58447;DHT22;44240;51.840;7.258;2024-02-04T07:15:25;11.70;88.00
58447;DHT22;44240;51.840;7.258;2024-02-04T07:17:52;11.70;88.00
58447;DHT22;44240;51.840;7.258;2024-02-04T07:20:19;11.60;88.10
58447;DHT22;44240;51.840;7.258;2024-02-04T07:22:46;11.60;88.10
58447;DHT22;44240;51.840;7.258;2024-02-04T07:25:13;11.60;88.20
58447;DHT22;44240;51.840;7.258;2024-02-04T07:27:40;11.60;88.20
58447;DHT22;44240;51.840;7.258;2024-02-04T07:30:07;11.60;88.20
58447;DHT22;44240;51.840;7.258;2024-02-04T07:32:34;11.60;88.30
58447;DHT22;44240;51.840;7.258;2024-02-04T07:35:05;11.60;88.20
58447;DHT22;44240;51.840;7.258;2024-02-04T07:37:32;11.60;88.20
58447;DHT22;44240;51.840;7.258;2024-02-04T07:40:00;11.60;88.20
58447;DHT22;44240;51.840;7.258;2024-02-04T07:42:27;11.50;88.20
58447;DHT22;44240;51.840;7.258;2024-02-04T07:44:54;11.50;88.10
58447;DHT22;44240;51.840;7.258;2024-02-04T07:47:21;11.50;89.10
58447;DHT22;44240;51.840;7.258;2024-02-04T07:49:49;11.50;88.00
58447;DHT22;44240;51.840;7.258;2024-02-04T07:52:16;11.60;87.60
58447;DHT22;44240;51.840;7.258;2024-02-04T07:54:43;11.50;87.50
58447;DHT22;44240;51.840;7.258;2024-02-04T07:57:10;11.50;87.50
58447;DHT22;44240;51.840;7.258;2024-02-04T07:59:37;11.40;87.40
58447;DHT22;44240;51.840;7.258;2024-02-04T08:02:04;11.50;87.30
58447;DHT22;44240;51.840;7.258;2024-02-04T08:04:31;11.40;87.30
58447;DHT22;44240;51.840;7.258;2024-02-04T08:06:58;11.40;87.40
58447;DHT22;44240;51.840;7.258;2024-02-04T08:09:25;11.40;87.40
58447;DHT22;44240;51.840;7.258;2024-02-04T08:11:52;11.40;87.40
58447;DHT22;44240;51.840;7.258;2024-02-04T08:14:20;11.40;87.40
58447;DHT22;44240;51.840;7.258;2024-02-04T08:16:46;11.40;87.30
58447;DHT22;44240;51.840;7.258;2024-02-04T08:19:14;11.30;87.30
58447;DHT22;44240;51.840;7.258;2024-02-04T08:21:42;11.30;87.50
58447;DHT22;44240;51.840;7.258;2024-02-04T08:24:08;11.30;87.10
58447;DHT22;44240;51.840;7.258;2024-02-04T08:26:35;11.30;86.90
58447;DHT22;44240;51.840;7.258;2024-02-04T08:29:02;11.20;86.80
58447;DHT22;44240;51.840;7.258;2024-02-04T08:31:31;11.20;86.80
58447;DHT22;44240;51.840;7.258;2024-02-04T08:33:58;11.20;86.80
58447;DHT22;44240;51.840;7.258;2024-02-04T08:36:25;11.20;86.80
58447;DHT22;44240;51.840;7.258;2024-02-04T08:38:52;11.20;86.50
58447;DHT22;44240;51.840;7.258;2024-02-04T08:41:19;11.20;86.20
58447;DHT22;44240;51.840;7.258;2024-02-04T08:43:46;11.10;86.20
58447;DHT22;44240;51.840;7.258;2024-02-04T08:46:13;11.10;86.00
58447;DHT22;44240;51.840;7.258;2024-02-04T08:48:41;11.00;86.10
58447;DHT22;44240;51.840;7.258;2024-02-04T08:51:12;11.00;86.20
58447;DHT22;44240;51.840;7.258;2024-02-04T08:53:39;11.00;86.30
58447;DHT22;44240;51.840;7.258;2024-02-04T08:56:06;11.00;86.30
58447;DHT22;44240;51.840;7.258;2024-02-04T08:58:34;11.00;86.40
58447;DHT22;44240;51.840;7.258;2024-02-04T09:01:01;11.00;86.50
58447;DHT22;44240;51.840;7.258;2024-02-04T09:03:27;11.00;86.50
58447;DHT22;44240;51.840;7.258;2024-02-04T09:05:55;11.00;86.50
58447;DHT22;44240;51.840;7.258;2024-02-04T09:08:21;11.00;86.60
58447;DHT22;44240;51.840;7.258;2024-02-04T09:10:48;11.00;86.70
58447;DHT22;44240;51.840;7.258;2024-02-04T09:13:15;11.00;86.80
58447;DHT22;44240;51.840;7.258;2024-02-04T09:15:42;11.00;87.00
58447;DHT22;44240;51.840;7.258;2024-02-04T09:18:09;11.00;87.00
58447;DHT22;44240;51.840;7.258;2024-02-04T09:20:36;11.10;88.10
58447;DHT22;44240;51.840;7.258;2024-02-04T09:23:05;11.10;87.10
58447;DHT22;44240;51.840;7.258;2024-02-04T09:25:31;11.10;87.30
58447;DHT22;44240;51.840;7.258;2024-02-04T09:27:58;11.10;87.30
58447;DHT22;44240;51.840;7.258;2024-02-04T09:30:25;11.10;87.40
58447;DHT22;44240;51.840;7.258;2024-02-04T09:32:52;11.20;87.50
58447;DHT22;44240;51.840;7.258;2024-02-04T09:35:19;11.20;87.60
58447;DHT22;44240;51.840;7.258;2024-02-04T09:37:46;11.20;87.90
58447;DHT22;44240;51.840;7.258;2024-02-04T09:40:13;11.20;88.10
58447;DHT22;44240;51.840;7.258;2024-02-04T09:42:40;11.30;88.20
58447;DHT22;44240;51.840;7.258;2024-02-04T09:45:08;11.40;88.40
58447;DHT22;44240;51.840;7.258;2024-02-04T09:47:35;11.40;88.10
58447;DHT22;44240;51.840;7.258;2024-02-04T09:50:02;11.50;87.80
58447;DHT22;44240;51.840;7.258;2024-02-04T09:52:33;11.50;87.50
58447;DHT22;44240;51.840;7.258;2024-02-04T09:55:01;11.50;87.30
58447;DHT22;44240;51.840;7.258;2024-02-04T09:57:29;11.60;86.90
58447;DHT22;44240;51.840;7.258;2024-02-04T09:59:57;11.60;86.60
58447;DHT22;44240;51.840;7.258;2024-02-04T10:02:24;11.70;86.40
58447;DHT22;44240;51.840;7.258;2024-02-04T10:04:52;11.70;85.90
58447;DHT22;44240;51.840;7.258;2024-02-04T10:07:19;11.70;85.70
58447;DHT22;44240;51.840;7.258;2024-02-04T10:09:46;11.70;85.30
58447;DHT22;44240;51.840;7.258;2024-02-04T10:12:13;11.70;85.50
58447;DHT22;44240;51.840;7.258;2024-02-04T10:14:40;11.80;85.50
58447;DHT22;44240;51.840;7.258;2024-02-04T10:17:07;11.80;85.30
58447;DHT22;44240;51.840;7.258;2024-02-04T10:19:34;11.80;85.20
58447;DHT22;44240;51.840;7.258;2024-02-04T10:22:02;11.80;85.10
58447;DHT22;44240;51.840;7.258;2024-02-04T10:24:29;11.80;85.00
58447;DHT22;44240;51.840;7.258;2024-02-04T10:26:57;11.90;85.10
58447;DHT22;44240;51.840;7.258;2024-02-04T10:29:24;11.90;85.20
58447;DHT22;44240;51.840;7.258;2024-02-04T10:31:55;11.90;85.30
58447;DHT22;44240;51.840;7.258;2024-02-04T10:34:26;11.90;85.50
58447;DHT22;44240;51.840;7.258;2024-02-04T10:36:53;11.90;85.50
58447;DHT22;44240;51.840;7.258;2024-02-04T10:39:19;11.90;85.40
58447;DHT22;44240;51.840;7.258;2024-02-04T10:41:50;11.90;85.60
58447;DHT22;44240;51.840;7.258;2024-02-04T10:44:22;11.90;85.80
58447;DHT22;44240;51.840;7.258;2024-02-04T10:46:50;11.90;86.00
58447;DHT22;44240;51.840;7.258;2024-02-04T10:49:19;11.90;86.20
58447;DHT22;44240;51.840;7.258;2024-02-04T10:51:47;11.90;86.50
58447;DHT22;44240;51.840;7.258;2024-02-04T10:54:15;11.90;86.60
58447;DHT22;44240;51.840;7.258;2024-02-04T10:56:54;11.90;86.90
58447;DHT22;44240;51.840;7.258;2024-02-04T10:59:22;11.90;86.90
58447;DHT22;44240;51.840;7.258;2024-02-04T11:01:50;11.90;87.00
58447;DHT22;44240;51.840;7.258;2024-02-04T11:04:18;11.90;87.00
58447;DHT22;44240;51.840;7.258;2024-02-04T11:06:45;12.00;87.00
58447;DHT22;44240;51.840;7.258;2024-02-04T11:09:13;11.90;87.10
58447;DHT22;44240;51.840;7.258;2024-02-04T11:11:43;12.00;87.10
58447;DHT22;44240;51.840;7.258;2024-02-04T11:14:12;12.00;87.10
58447;DHT22;44240;51.840;7.258;2024-02-04T11:16:52;12.00;87.10
58447;DHT22;44240;51.840;7.258;2024-02-04T11:22:23;12.00;87.00
58447;DHT22;44240;51.840;7.258;2024-02-04T11:28:04;12.00;87.00
58447;DHT22;44240;51.840;7.258;2024-02-04T11:30:34;12.10;86.80
58447;DHT22;44240;51.840;7.258;2024-02-04T11:33:04;12.10;86.40
58447;DHT22;44240;51.840;7.258;2024-02-04T11:35:32;12.10;86.00
58447;DHT22;44240;51.840;7.258;2024-02-04T11:38:00;12.10;85.90
58447;DHT22;44240;51.840;7.258;2024-02-04T11:40:35;12.10;85.90
58447;DHT22;44240;51.840;7.258;2024-02-04T11:43:14;12.20;85.60
58447;DHT22;44240;51.840;7.258;2024-02-04T11:45:42;12.20;85.70
58447;DHT22;44240;51.840;7.258;2024-02-04T11:48:10;12.20;86.60
58447;DHT22;44240;51.840;7.258;2024-02-04T11:50:38;12.30;85.30
58447;DHT22;44240;51.840;7.258;2024-02-04T11:53:09;12.30;85.40
58447;DHT22;44240;51.840;7.258;2024-02-04T11:55:39;12.30;85.40
58447;DHT22;44240;51.840;7.258;2024-02-04T11:58:11;12.30;85.50
58447;DHT22;44240;51.840;7.258;2024-02-04T12:00:42;12.30;85.40
58447;DHT22;44240;51.840;7.258;2024-02-04T12:03:10;12.30;85.20
58447;DHT22;44240;51.840;7.258;2024-02-04T12:05:37;12.40;85.10
58447;DHT22;44240;51.840;7.258;2024-02-04T12:08:07;12.40;85.00
58447;DHT22;44240;51.840;7.258;2024-02-04T12:10:35;12.40;85.00
58447;DHT22;44240;51.840;7.258;2024-02-04T12:13:06;12.40;85.00
58447;DHT22;44240;51.840;7.258;2024-02-04T12:15:36;12.50;85.00
58447;DHT22;44240;51.840;7.258;2024-02-04T12:18:10;12.40;84.80
58447;DHT22;44240;51.840;7.258;2024-02-04T12:20:38;12.40;85.00
58447;DHT22;44240;51.840;7.258;2024-02-04T12:23:06;12.50;85.10
58447;DHT22;44240;51.840;7.258;2024-02-04T12:25:34;12.50;85.30
58447;DHT22;44240;51.840;7.258;2024-02-04T12:28:02;12.50;85.40
58447;DHT22;44240;51.840;7.258;2024-02-04T12:30:31;12.40;85.70
58447;DHT22;44240;51.840;7.258;2024-02-04T12:33:00;12.40;86.00
58447;DHT22;44240;51.840;7.258;2024-02-04T12:35:28;12.40;86.10
58447;DHT22;44240;51.840;7.258;2024-02-04T12:37:56;12.40;86.40
58447;DHT22;44240;51.840;7.258;2024-02-04T12:40:28;12.40;86.60
58447;DHT22;44240;51.840;7.258;2024-02-04T12:42:56;12.30;86.80
58447;DHT22;44240;51.840;7.258;2024-02-04T12:45:28;12.30;87.00
58447;DHT22;44240;51.840;7.258;2024-02-04T12:47:56;12.30;87.10
58447;DHT22;44240;51.840;7.258;2024-02-04T12:50:25;12.30;87.20
58447;DHT22;44240;51.840;7.258;2024-02-04T12:53:07;12.30;87.40
58447;DHT22;44240;51.840;7.258;2024-02-04T12:55:37;12.20;87.60
58447;DHT22;44240;51.840;7.258;2024-02-04T12:58:13;12.20;87.60
58447;DHT22;44240;51.840;7.258;2024-02-04T13:00:43;12.20;87.80
58447;DHT22;44240;51.840;7.258;2024-02-04T13:03:15;12.20;88.00
58447;DHT22;44240;51.840;7.258;2024-02-04T13:05:42;12.20;88.10
58447;DHT22;44240;51.840;7.258;2024-02-04T13:08:09;12.20;88.20
58447;DHT22;44240;51.840;7.258;2024-02-04T13:10:36;12.20;88.30
58447;DHT22;44240;51.840;7.258;2024-02-04T13:13:09;12.20;88.40
58447;DHT22;44240;51.840;7.258;2024-02-04T13:15:39;12.20;88.50
58447;DHT22;44240;51.840;7.258;2024-02-04T13:18:07;12.30;88.60
58447;DHT22;44240;51.840;7.258;2024-02-04T13:20:35;12.30;88.60
58447;DHT22;44240;51.840;7.258;2024-02-04T13:23:02;12.30;88.60
58447;DHT22;44240;51.840;7.258;2024-02-04T13:25:32;12.30;88.60
58447;DHT22;44240;51.840;7.258;2024-02-04T13:27:59;12.30;88.70
58447;DHT22;44240;51.840;7.258;2024-02-04T13:30:26;12.30;88.70
58447;DHT22;44240;51.840;7.258;2024-02-04T13:32:53;12.30;88.80
58447;DHT22;44240;51.840;7.258;2024-02-04T13:35:20;12.30;88.80
58447;DHT22;44240;51.840;7.258;2024-02-04T13:37:48;12.30;88.80
58447;DHT22;44240;51.840;7.258;2024-02-04T13:40:19;12.40;88.90
58447;DHT22;44240;51.840;7.258;2024-02-04T13:42:46;12.40;88.90
58447;DHT22;44240;51.840;7.258;2024-02-04T13:45:14;12.40;89.00
58447;DHT22;44240;51.840;7.258;2024-02-04T13:47:41;12.50;89.10
58447;DHT22;44240;51.840;7.258;2024-02-04T13:50:10;12.50;89.40
58447;DHT22;44240;51.840;7.258;2024-02-04T13:52:38;12.50;89.40
58447;DHT22;44240;51.840;7.258;2024-02-04T13:55:05;12.50;89.30
58447;DHT22;44240;51.840;7.258;2024-02-04T13:57:34;12.50;89.30
58447;DHT22;44240;51.840;7.258;2024-02-04T14:00:01;12.50;89.10
58447;DHT22;44240;51.840;7.258;2024-02-04T14:02:32;12.60;88.90
58447;DHT22;44240;51.840;7.258;2024-02-04T14:04:58;12.60;88.60
58447;DHT22;44240;51.840;7.258;2024-02-04T14:07:26;12.60;88.20
58447;DHT22;44240;51.840;7.258;2024-02-04T14:09:53;12.60;88.20
58447;DHT22;44240;51.840;7.258;2024-02-04T14:12:21;12.60;87.90
58447;DHT22;44240;51.840;7.258;2024-02-04T14:14:47;12.60;87.90
58447;DHT22;44240;51.840;7.258;2024-02-04T14:17:14;12.70;87.50
58447;DHT22;44240;51.840;7.258;2024-02-04T14:19:41;12.60;87.50
58447;DHT22;44240;51.840;7.258;2024-02-04T14:22:08;12.60;87.50
58447;DHT22;44240;51.840;7.258;2024-02-04T14:24:35;12.60;87.20
58447;DHT22;44240;51.840;7.258;2024-02-04T14:27:02;12.70;87.10
58447;DHT22;44240;51.840;7.258;2024-02-04T14:29:29;12.60;87.20
58447;DHT22;44240;51.840;7.258;2024-02-04T14:31:56;12.60;87.40
58447;DHT22;44240;51.840;7.258;2024-02-04T14:34:24;12.60;87.50
58447;DHT22;44240;51.840;7.258;2024-02-04T14:36:52;12.60;87.50
58447;DHT22;44240;51.840;7.258;2024-02-04T14:39:19;12.60;87.80
58447;DHT22;44240;51.840;7.258;2024-02-04T14:41:45;12.60;87.90
58447;DHT22;44240;51.840;7.258;2024-02-04T14:44:12;12.50;88.00
58447;DHT22;44240;51.840;7.258;2024-02-04T14:46:39;12.50;88.10
58447;DHT22;44240;51.840;7.258;2024-02-04T14:49:06;12.50;88.10
58447;DHT22;44240;51.840;7.258;2024-02-04T14:51:33;12.50;88.20
58447;DHT22;44240;51.840;7.258;2024-02-04T14:54:02;12.50;88.10
58447;DHT22;44240;51.840;7.258;2024-02-04T14:56:28;12.50;88.40
58447;DHT22;44240;51.840;7.258;2024-02-04T14:58:55;12.50;88.40
58447;DHT22;44240;51.840;7.258;2024-02-04T15:01:22;12.50;88.60
58447;DHT22;44240;51.840;7.258;2024-02-04T15:03:49;12.50;88.50
58447;DHT22;44240;51.840;7.258;2024-02-04T15:06:16;12.50;88.40
58447;DHT22;44240;51.840;7.258;2024-02-04T15:08:43;12.50;88.30
58447;DHT22;44240;51.840;7.258;2024-02-04T15:11:10;12.50;87.90
58447;DHT22;44240;51.840;7.258;2024-02-04T15:13:37;12.50;87.70
58447;DHT22;44240;51.840;7.258;2024-02-04T15:16:04;12.50;87.80
58447;DHT22;44240;51.840;7.258;2024-02-04T15:18:32;12.50;87.80
58447;DHT22;44240;51.840;7.258;2024-02-04T15:20:59;12.50;87.70
58447;DHT22;44240;51.840;7.258;2024-02-04T15:23:27;12.40;87.60
58447;DHT22;44240;51.840;7.258;2024-02-04T15:25:54;12.40;87.30
58447;DHT22;44240;51.840;7.258;2024-02-04T15:28:21;12.40;87.40
58447;DHT22;44240;51.840;7.258;2024-02-04T15:30:50;12.40;87.60
58447;DHT22;44240;51.840;7.258;2024-02-04T15:33:17;12.50;87.40
58447;DHT22;44240;51.840;7.258;2024-02-04T15:35:45;12.50;87.20
58447;DHT22;44240;51.840;7.258;2024-02-04T15:38:12;12.50;87.40
58447;DHT22;44240;51.840;7.258;2024-02-04T15:40:43;12.50;87.40
58447;DHT22;44240;51.840;7.258;2024-02-04T15:43:10;12.40;87.40